createdAt,value
2018-01-16T00:00:30.842Z,90.20
2018-01-16T00:02:59.032Z,90.80
2018-01-16T00:05:27.426Z,90.80
2018-01-16T00:07:56.370Z,90.90
2018-01-16T00:10:24.548Z,90.90
2018-01-16T00:12:53.002Z,91.10
2018-01-16T00:15:21.185Z,91.50
2018-01-16T00:17:49.329Z,91.00
2018-01-16T00:20:17.654Z,91.20
2018-01-16T00:22:45.827Z,91.40
2018-01-16T00:25:13.972Z,90.80
2018-01-16T00:27:42.132Z,90.40
2018-01-16T00:30:10.310Z,90.40
2018-01-16T00:32:39.212Z,90.60
2018-01-16T00:35:07.369Z,90.80
2018-01-16T00:37:35.604Z,90.30
2018-01-16T00:40:07.698Z,91.00
2018-01-16T00:42:36.621Z,90.60
2018-01-16T00:45:05.085Z,90.60
2018-01-16T00:47:33.262Z,90.60
2018-01-16T00:50:02.512Z,90.40
2018-01-16T00:52:30.657Z,90.50
2018-01-16T00:54:58.837Z,88.80
2018-01-16T00:57:27.101Z,89.50
2018-01-16T00:59:56.213Z,87.60
2018-01-16T01:02:25.278Z,89.60
2018-01-16T01:04:53.431Z,90.00
2018-01-16T01:07:22.604Z,90.00
2018-01-16T01:09:59.022Z,90.00
2018-01-16T01:12:27.216Z,90.00
2018-01-16T01:14:55.485Z,90.10
2018-01-16T01:17:23.665Z,88.40
2018-01-16T01:19:59.335Z,89.30
2018-01-16T01:22:27.506Z,90.00
2018-01-16T01:25:02.313Z,89.50
2018-01-16T01:27:30.522Z,88.70
2018-01-16T01:30:05.082Z,87.60
2018-01-16T01:32:34.613Z,88.30
2018-01-16T01:35:06.734Z,88.30
2018-01-16T01:37:35.739Z,90.00
2018-01-16T01:40:04.385Z,90.00
2018-01-16T01:42:32.593Z,89.70
2018-01-16T01:45:01.556Z,87.70
2018-01-16T01:47:29.944Z,87.80
2018-01-16T01:50:03.522Z,88.70
2018-01-16T01:52:31.961Z,88.80
2018-01-16T01:55:00.237Z,86.90
2018-01-16T01:57:28.592Z,88.40
2018-01-16T01:59:57.744Z,88.20
2018-01-16T02:02:25.930Z,88.20
2018-01-16T02:04:55.060Z,87.20
2018-01-16T02:07:24.237Z,86.70
2018-01-16T02:09:56.073Z,87.50
2018-01-16T02:12:24.332Z,85.30
2018-01-16T02:14:52.555Z,86.70
2018-01-16T02:17:20.800Z,84.60
2018-01-16T02:19:48.962Z,87.00
2018-01-16T02:22:17.208Z,85.30
2018-01-16T02:24:45.409Z,87.60
2018-01-16T02:27:13.586Z,85.00
2018-01-16T02:29:41.775Z,83.90
2018-01-16T02:32:10.381Z,83.40
2018-01-16T02:34:39.550Z,83.30
2018-01-16T02:37:07.742Z,83.00
2018-01-16T02:39:36.013Z,80.40
2018-01-16T02:42:04.898Z,79.30
2018-01-16T02:44:33.338Z,79.20
2018-01-16T02:47:01.985Z,78.20
2018-01-16T02:49:30.267Z,78.20
2018-01-16T02:51:58.457Z,77.70
2018-01-16T02:54:27.484Z,76.90
2018-01-16T02:56:55.641Z,77.00
2018-01-16T02:59:23.838Z,79.10
2018-01-16T03:01:52.016Z,77.70
2018-01-16T03:04:20.191Z,80.10
2018-01-16T03:06:48.341Z,79.50
2018-01-16T03:09:16.517Z,80.10
2018-01-16T03:11:44.906Z,81.00
2018-01-16T03:14:13.664Z,79.60
2018-01-16T03:16:41.855Z,79.30
2018-01-16T03:19:11.993Z,79.50
2018-01-16T03:21:47.200Z,79.40
2018-01-16T03:24:16.128Z,78.20
2018-01-16T03:26:44.414Z,78.10
2018-01-16T03:29:12.560Z,78.70
2018-01-16T03:31:40.844Z,79.90
2018-01-16T03:34:09.012Z,80.00
2018-01-16T03:36:37.186Z,78.50
2018-01-16T03:39:05.625Z,79.30
2018-01-16T03:41:38.656Z,82.80
2018-01-16T03:44:06.827Z,82.70
2018-01-16T03:46:34.990Z,79.50
2018-01-16T03:49:07.580Z,82.80
2018-01-16T03:51:35.745Z,83.00
2018-01-16T03:54:03.902Z,83.40
2018-01-16T03:56:32.086Z,83.80
2018-01-16T03:59:00.282Z,85.50
2018-01-16T04:01:32.344Z,82.70
2018-01-16T04:04:00.621Z,82.70
2018-01-16T04:06:28.777Z,81.90
2018-01-16T04:08:57.679Z,81.70
2018-01-16T04:11:30.371Z,80.30
2018-01-16T04:13:58.645Z,80.30
2018-01-16T04:16:26.916Z,80.20
2018-01-16T04:18:55.045Z,80.80
2018-01-16T04:21:23.377Z,81.10
2018-01-16T04:23:52.173Z,80.40
2018-01-16T04:26:20.328Z,81.20
2018-01-16T04:28:49.467Z,79.10
2018-01-16T04:31:17.711Z,80.90
2018-01-16T04:33:45.891Z,80.80
2018-01-16T04:36:14.036Z,82.60
2018-01-16T04:38:42.958Z,81.60
2018-01-16T04:41:12.135Z,81.70
2018-01-16T04:43:40.831Z,81.40
2018-01-16T04:46:08.980Z,80.90
2018-01-16T04:48:37.904Z,81.40
2018-01-16T04:51:13.649Z,81.40
2018-01-16T04:53:41.813Z,84.20
2018-01-16T04:56:09.976Z,87.20
2018-01-16T04:58:38.409Z,88.50
2018-01-16T05:01:10.920Z,89.80
2018-01-16T05:03:39.873Z,91.30
2018-01-16T05:06:11.302Z,91.30
2018-01-16T05:08:39.442Z,91.30
2018-01-16T05:11:09.564Z,91.30
2018-01-16T05:13:38.482Z,91.50
2018-01-16T05:16:06.637Z,91.50
2018-01-16T05:18:34.849Z,92.10
2018-01-16T05:21:13.323Z,92.20
2018-01-16T05:23:42.330Z,92.30
2018-01-16T05:26:11.456Z,92.30
2018-01-16T05:28:39.637Z,92.70
2018-01-16T05:31:11.739Z,93.50
2018-01-16T05:33:40.751Z,93.80
2018-01-16T05:36:09.044Z,93.80
2018-01-16T05:38:37.924Z,93.50
2018-01-16T05:41:10.306Z,93.30
2018-01-16T05:43:38.470Z,93.10
2018-01-16T05:46:06.686Z,93.50
2018-01-16T05:48:34.814Z,92.60
2018-01-16T05:51:03.817Z,93.40
2018-01-16T05:53:31.988Z,93.40
2018-01-16T05:56:00.173Z,94.10
2018-01-16T05:58:28.333Z,94.10
2018-01-16T06:00:56.606Z,94.50
2018-01-16T06:03:25.474Z,93.50
2018-01-16T06:05:54.472Z,93.60
2018-01-16T06:08:22.620Z,93.70
2018-01-16T06:10:50.770Z,94.00
2018-01-16T06:13:19.145Z,94.20
2018-01-16T06:15:47.296Z,93.90
2018-01-16T06:18:19.292Z,95.00
2018-01-16T06:20:48.557Z,94.20
2018-01-16T06:23:16.748Z,93.90
2018-01-16T06:25:44.997Z,94.20
2018-01-16T06:28:13.568Z,94.40
2018-01-16T06:30:47.233Z,94.20
2018-01-16T06:33:15.397Z,94.60
2018-01-16T06:35:43.567Z,95.40
2018-01-16T06:38:11.716Z,94.60
2018-01-16T06:40:40.722Z,94.70
2018-01-16T06:43:08.883Z,94.70
2018-01-16T06:45:37.061Z,95.00
2018-01-16T06:48:05.206Z,95.20
2018-01-16T06:50:33.426Z,95.00
2018-01-16T06:53:01.581Z,95.20
2018-01-16T06:55:29.736Z,95.10
2018-01-16T06:57:57.901Z,94.40
2018-01-16T07:00:26.104Z,94.50
2018-01-16T07:02:54.251Z,93.90
2018-01-16T07:05:22.400Z,93.60
2018-01-16T07:07:50.603Z,94.20
2018-01-16T07:10:18.964Z,94.20
2018-01-16T07:12:47.165Z,93.60
2018-01-16T07:15:15.554Z,94.00
2018-01-16T07:17:44.466Z,93.80
2018-01-16T07:20:14.995Z,93.80
2018-01-16T07:22:43.139Z,93.10
2018-01-16T07:25:11.920Z,92.90
2018-01-16T07:27:40.074Z,92.70
2018-01-16T07:30:08.290Z,93.20
2018-01-16T07:32:37.392Z,92.30
2018-01-16T07:35:05.539Z,91.90
2018-01-16T07:37:34.473Z,91.80
2018-01-16T07:40:09.255Z,91.80
2018-01-16T07:42:38.289Z,92.70
2018-01-16T07:45:08.601Z,92.40
2018-01-16T07:47:37.619Z,92.30
2018-01-16T07:50:10.745Z,92.40
2018-01-16T07:52:39.005Z,93.50
2018-01-16T07:55:07.180Z,91.30
2018-01-16T07:57:35.348Z,93.70
2018-01-16T08:00:04.391Z,90.90
2018-01-16T08:02:33.311Z,91.40
2018-01-16T08:05:01.464Z,91.50
2018-01-16T08:07:30.393Z,92.30
2018-01-16T08:09:58.661Z,92.30
2018-01-16T08:12:26.824Z,92.50
2018-01-16T08:14:55.035Z,92.50
2018-01-16T08:17:23.240Z,92.70
2018-01-16T08:19:57.602Z,93.20
2018-01-16T08:22:30.149Z,93.10
2018-01-16T08:24:58.313Z,91.30
2018-01-16T08:27:30.823Z,92.90
2018-01-16T08:29:59.064Z,92.80
2018-01-16T08:32:27.222Z,92.50
2018-01-16T08:34:56.290Z,92.50
2018-01-16T08:37:24.457Z,92.30
2018-01-16T08:39:59.434Z,91.90
2018-01-16T08:42:28.035Z,91.40
2018-01-16T08:44:56.370Z,92.30
2018-01-16T08:47:24.528Z,91.00
2018-01-16T08:49:54.701Z,91.90
2018-01-16T08:52:23.655Z,91.70
2018-01-16T08:54:51.816Z,91.80
2018-01-16T08:57:19.961Z,91.20
2018-01-16T08:59:48.224Z,92.30
2018-01-16T09:02:17.917Z,92.20
2018-01-16T09:04:46.076Z,88.90
2018-01-16T09:07:14.222Z,90.30
2018-01-16T09:09:42.368Z,91.80
2018-01-16T09:12:10.552Z,90.80
2018-01-16T09:14:39.708Z,91.40
2018-01-16T09:17:07.850Z,91.50
2018-01-16T09:19:36.022Z,90.60
2018-01-16T09:22:04.234Z,91.20
2018-01-16T09:24:33.252Z,91.10
2018-01-16T09:27:01.409Z,91.10
2018-01-16T09:29:29.567Z,90.30
2018-01-16T09:31:58.493Z,91.10
2018-01-16T09:34:26.656Z,91.10
2018-01-16T09:36:54.800Z,91.30
2018-01-16T09:39:22.955Z,89.40
2018-01-16T09:41:51.101Z,89.70
2018-01-16T09:44:19.253Z,89.40
2018-01-16T09:46:47.402Z,90.30
2018-01-16T09:49:15.546Z,89.90
2018-01-16T09:51:46.764Z,90.40
2018-01-16T09:54:14.912Z,92.10
2018-01-16T09:56:45.140Z,92.20
2018-01-16T09:59:13.285Z,90.70
2018-01-16T10:01:47.547Z,91.20
2018-01-16T10:04:19.386Z,91.30
2018-01-16T10:06:47.559Z,90.50
2018-01-16T10:09:15.736Z,91.80
2018-01-16T10:11:43.996Z,91.60
2018-01-16T10:14:12.256Z,89.20
2018-01-16T10:16:40.399Z,90.90
2018-01-16T10:19:08.550Z,90.80
2018-01-16T10:21:40.186Z,89.50
2018-01-16T10:24:08.344Z,90.70
2018-01-16T10:26:36.554Z,84.90
2018-01-16T10:29:04.739Z,83.80
2018-01-16T10:31:32.926Z,83.60
2018-01-16T10:34:01.915Z,84.70
2018-01-16T10:36:30.079Z,87.80
2018-01-16T10:38:58.253Z,89.40
2018-01-16T10:41:26.397Z,88.60
2018-01-16T10:43:56.415Z,86.30
2018-01-16T10:46:25.323Z,88.30
2018-01-16T10:48:53.485Z,88.30
2018-01-16T10:51:21.764Z,90.00
2018-01-16T10:53:49.908Z,91.10
2018-01-16T10:56:18.842Z,92.80
2018-01-16T10:58:47.882Z,92.50
2018-01-16T11:01:16.093Z,92.00
2018-01-16T11:03:44.287Z,92.70
2018-01-16T11:06:12.440Z,91.00
2018-01-16T11:08:41.457Z,90.40
2018-01-16T11:11:09.615Z,90.50
2018-01-16T11:13:37.773Z,90.00
2018-01-16T11:16:06.695Z,88.80
2018-01-16T11:18:34.879Z,88.90
2018-01-16T11:21:03.130Z,90.50
2018-01-16T11:23:32.045Z,91.90
2018-01-16T11:26:00.205Z,91.90
2018-01-16T11:28:28.369Z,90.90
2018-01-16T11:30:56.628Z,86.20
2018-01-16T11:33:24.848Z,90.50
2018-01-16T11:35:53.098Z,88.30
2018-01-16T11:38:21.234Z,90.40
2018-01-16T11:40:59.270Z,87.50
2018-01-16T11:43:28.254Z,88.90
2018-01-16T11:45:58.073Z,91.00
2018-01-16T11:48:27.612Z,91.80
2018-01-16T11:51:08.620Z,91.80
2018-01-16T11:53:36.829Z,91.00
2018-01-16T11:56:05.012Z,90.70
2018-01-16T11:58:33.214Z,91.10
2018-01-16T12:01:04.825Z,91.60
2018-01-16T12:03:38.460Z,90.80
2018-01-16T12:06:06.611Z,90.00
2018-01-16T12:08:38.358Z,90.40
2018-01-16T12:11:07.354Z,90.70
2018-01-16T12:13:36.443Z,90.80
2018-01-16T12:16:05.370Z,89.30
2018-01-16T12:18:33.526Z,88.60
2018-01-16T12:21:01.722Z,86.60
2018-01-16T12:23:29.874Z,91.90
2018-01-16T12:25:58.054Z,88.60
2018-01-16T12:28:26.806Z,88.50
2018-01-16T12:30:56.118Z,87.70
2018-01-16T12:33:25.365Z,90.10
2018-01-16T12:35:53.865Z,90.10
2018-01-16T12:38:22.161Z,91.20
2018-01-16T12:40:51.813Z,90.60
2018-01-16T12:43:20.191Z,88.40
2018-01-16T12:45:48.936Z,90.10
2018-01-16T12:48:18.757Z,91.60
2018-01-16T12:50:47.597Z,72.40
2018-01-16T12:53:16.511Z,82.90
2018-01-16T12:55:44.822Z,80.40
2018-01-16T12:58:14.457Z,84.90
2018-01-16T13:00:42.728Z,85.00
2018-01-16T13:03:10.958Z,84.90
2018-01-16T13:05:39.949Z,84.10
2018-01-16T13:08:08.157Z,85.00
2018-01-16T13:10:37.403Z,80.60
2018-01-16T13:13:05.545Z,82.90
2018-01-16T13:15:34.489Z,81.40
2018-01-16T13:18:02.641Z,84.50
2018-01-16T13:20:37.706Z,77.90
2018-01-16T13:23:09.505Z,79.90
2018-01-16T13:25:38.762Z,82.90
2018-01-16T13:28:06.920Z,76.40
2018-01-16T13:30:38.825Z,74.40
2018-01-16T13:33:07.754Z,75.70
2018-01-16T13:35:35.993Z,75.90
2018-01-16T13:38:04.164Z,76.60
2018-01-16T13:40:33.169Z,76.10
2018-01-16T13:43:01.390Z,75.70
2018-01-16T13:45:29.552Z,74.50
2018-01-16T13:47:57.696Z,70.50
2018-01-16T13:50:27.366Z,76.80
2018-01-16T13:52:55.505Z,76.90
2018-01-16T13:55:23.663Z,74.60
2018-01-16T13:57:51.807Z,72.20
2018-01-16T14:00:20.723Z,75.20
2018-01-16T14:02:48.876Z,75.30
2018-01-16T14:05:17.031Z,73.50
2018-01-16T14:07:45.208Z,76.10
2018-01-16T14:10:13.350Z,80.10
2018-01-16T14:12:41.510Z,76.10
2018-01-16T14:15:09.892Z,76.30
2018-01-16T14:17:38.036Z,80.30
2018-01-16T14:20:07.060Z,76.50
2018-01-16T14:22:35.234Z,76.60
2018-01-16T14:25:03.443Z,78.20
2018-01-16T14:27:31.596Z,76.50
2018-01-16T14:30:02.996Z,79.40
2018-01-16T14:32:31.691Z,80.50
2018-01-16T14:35:00.593Z,81.10
2018-01-16T14:37:28.761Z,81.10
2018-01-16T14:39:56.945Z,81.00
2018-01-16T14:42:25.090Z,81.30
2018-01-16T14:44:54.050Z,86.70
2018-01-16T14:47:23.589Z,86.80
2018-01-16T14:49:55.974Z,88.70
2018-01-16T14:52:24.363Z,88.70
2018-01-16T14:54:54.570Z,87.00
2018-01-16T14:57:22.725Z,87.00
2018-01-16T14:59:51.781Z,87.20
2018-01-16T15:02:20.797Z,86.70
2018-01-16T15:04:48.948Z,90.00
2018-01-16T15:07:17.110Z,82.50
2018-01-16T15:09:48.726Z,84.80
2018-01-16T15:12:16.905Z,81.20
2018-01-16T15:14:45.935Z,87.80
2018-01-16T15:17:14.698Z,87.80
2018-01-16T15:19:42.882Z,88.40
2018-01-16T15:22:11.949Z,89.00
2018-01-16T15:24:40.123Z,91.00
2018-01-16T15:27:09.066Z,90.10
2018-01-16T15:29:37.272Z,89.90
2018-01-16T15:32:06.245Z,89.10
2018-01-16T15:34:34.398Z,89.10
2018-01-16T15:37:02.573Z,89.80
2018-01-16T15:39:31.495Z,90.40
2018-01-16T15:41:59.649Z,90.40
2018-01-16T15:44:27.790Z,90.90
2018-01-16T15:46:56.012Z,91.10
2018-01-16T15:49:24.163Z,90.90
2018-01-16T15:51:52.455Z,90.50
2018-01-16T15:54:20.939Z,90.00
2018-01-16T15:56:49.093Z,91.60
2018-01-16T15:59:17.241Z,89.80
2018-01-16T16:01:45.384Z,89.90
2018-01-16T16:04:13.571Z,91.00
2018-01-16T16:06:43.479Z,91.20
2018-01-16T16:09:11.700Z,91.10
2018-01-16T16:11:39.949Z,91.50
2018-01-16T16:14:08.217Z,91.30
2018-01-16T16:16:36.429Z,92.40
2018-01-16T16:19:04.634Z,91.50
2018-01-16T16:21:33.072Z,92.30
2018-01-16T16:24:01.224Z,91.90
2018-01-16T16:26:30.258Z,91.00
2018-01-16T16:28:58.486Z,91.00
2018-01-16T16:31:33.847Z,91.50
2018-01-16T16:34:07.792Z,92.70
2018-01-16T16:36:35.967Z,92.70
2018-01-16T16:39:04.161Z,91.20
2018-01-16T16:41:32.793Z,91.10
2018-01-16T16:44:00.987Z,90.50
2018-01-16T16:46:29.338Z,90.90
2018-01-16T16:48:57.536Z,90.80
2018-01-16T16:51:27.767Z,90.00
2018-01-16T16:53:56.707Z,90.20
2018-01-16T16:56:25.740Z,87.80
2018-01-16T16:58:54.817Z,87.80
2018-01-16T17:01:23.168Z,87.00
2018-01-16T17:03:51.576Z,87.80
2018-01-16T17:06:19.775Z,87.40
2018-01-16T17:08:48.025Z,84.80
2018-01-16T17:11:18.273Z,88.60
2018-01-16T17:13:46.968Z,87.50
2018-01-16T17:16:15.242Z,89.30
2018-01-16T17:18:43.506Z,82.30
2018-01-16T17:21:14.741Z,84.60
2018-01-16T17:23:43.251Z,83.90
2018-01-16T17:26:11.433Z,80.10
2018-01-16T17:28:39.656Z,81.90
2018-01-16T17:31:10.234Z,80.00
2018-01-16T17:33:38.567Z,78.00
2018-01-16T17:36:07.000Z,78.00
2018-01-16T17:38:35.370Z,78.60
2018-01-16T17:41:03.698Z,79.90
2018-01-16T17:43:31.905Z,79.50
2018-01-16T17:46:00.899Z,82.60
2018-01-16T17:48:29.082Z,83.60
2018-01-16T17:50:58.260Z,84.70
2018-01-16T17:53:26.422Z,83.90
2018-01-16T17:55:54.580Z,84.20
2018-01-16T17:58:22.792Z,84.10
2018-01-16T18:00:54.663Z,88.50
2018-01-16T18:03:23.198Z,90.70
2018-01-16T18:05:56.499Z,89.20
2018-01-16T18:08:25.513Z,89.20
2018-01-16T18:11:00.925Z,89.20
2018-01-16T18:13:33.092Z,89.00
2018-01-16T18:16:02.403Z,86.40
2018-01-16T18:18:31.354Z,86.50
2018-01-16T18:21:01.552Z,89.40
2018-01-16T18:23:31.060Z,91.60
2018-01-16T18:25:59.393Z,88.50
2018-01-16T18:28:28.357Z,91.40
2018-01-16T18:30:58.566Z,91.40
2018-01-16T18:33:28.463Z,91.40
2018-01-16T18:36:00.119Z,90.60
2018-01-16T18:38:28.807Z,90.90
2018-01-16T18:40:59.035Z,89.90
2018-01-16T18:46:08.629Z,84.20
2018-01-16T18:48:42.583Z,84.30
2018-01-16T18:51:15.260Z,84.40
2018-01-16T18:53:43.907Z,86.10
2018-01-16T18:56:12.486Z,90.20
2018-01-16T18:58:40.696Z,88.60
2018-01-16T19:01:09.006Z,88.60
2018-01-16T19:03:37.988Z,88.50
2018-01-16T19:06:06.846Z,87.30
2018-01-16T19:08:35.989Z,91.10
2018-01-16T19:11:04.228Z,91.10
2018-01-16T19:13:32.424Z,91.70
2018-01-16T19:16:03.072Z,92.00
2018-01-16T19:18:31.460Z,88.10
2018-01-16T19:20:59.707Z,89.00
2018-01-16T19:23:28.587Z,90.80
2018-01-16T19:25:56.779Z,91.30
2018-01-16T19:28:26.024Z,91.60
2018-01-16T19:30:54.216Z,91.50
2018-01-16T19:33:22.370Z,87.40
2018-01-16T19:35:50.610Z,87.10
2018-01-16T19:38:18.850Z,90.00
2018-01-16T19:40:47.557Z,90.70
2018-01-16T19:43:37.610Z,91.50
2018-01-16T19:49:00.202Z,91.60
2018-01-16T19:51:31.649Z,90.80
2018-01-16T19:54:01.597Z,90.80
2018-01-16T19:56:29.897Z,90.60
2018-01-16T19:58:58.070Z,88.30
2018-01-16T20:01:27.634Z,87.50
2018-01-16T20:03:55.917Z,89.10
2018-01-16T20:06:25.735Z,90.50
2018-01-16T20:08:54.477Z,90.40
2018-01-16T20:11:30.502Z,90.80
2018-01-16T20:14:00.595Z,90.20
2018-01-16T20:19:07.549Z,91.20
2018-01-16T20:21:41.879Z,91.30
2018-01-16T20:32:01.531Z,90.50
2018-01-16T20:48:45.454Z,92.20
2018-01-16T20:51:18.670Z,93.00
2018-01-16T20:54:01.304Z,93.00
2018-01-16T20:56:31.337Z,93.30
2018-01-16T20:59:00.122Z,94.00
2018-01-16T21:01:28.505Z,93.80
2018-01-16T21:03:57.499Z,94.40
2018-01-16T21:06:27.397Z,94.10
2018-01-16T21:08:55.622Z,93.60
2018-01-16T21:11:24.851Z,92.70
2018-01-16T21:13:53.135Z,93.50
2018-01-16T21:16:21.362Z,93.70
2018-01-16T21:18:49.580Z,94.10
2018-01-16T21:21:17.765Z,94.10
2018-01-16T21:23:46.613Z,93.80
2018-01-16T21:26:15.547Z,93.20
2018-01-16T21:28:44.696Z,93.20
2018-01-16T21:31:16.912Z,93.80
2018-01-16T21:33:45.138Z,93.80
2018-01-16T21:36:15.251Z,94.80
2018-01-16T21:38:44.233Z,93.60
2018-01-16T21:41:20.360Z,93.60
2018-01-16T21:43:52.110Z,93.20
2018-01-16T21:46:21.429Z,93.20
2018-01-16T21:48:49.844Z,94.50
2018-01-16T21:51:18.197Z,91.00
2018-01-16T21:53:46.351Z,88.90
2018-01-16T21:56:15.181Z,91.30
2018-01-16T21:58:44.225Z,91.10
2018-01-16T22:01:12.548Z,91.40
2018-01-16T22:03:42.200Z,91.40
2018-01-16T22:06:10.381Z,91.40
2018-01-16T22:08:39.305Z,92.50
2018-01-16T22:11:09.683Z,92.50
2018-01-16T22:13:37.821Z,93.10
2018-01-16T22:16:05.996Z,93.50
2018-01-16T22:18:34.154Z,94.00
2018-01-16T22:21:03.318Z,94.00
2018-01-16T22:23:31.682Z,94.20
2018-01-16T22:25:59.957Z,94.60
2018-01-16T22:28:28.099Z,94.50
2018-01-16T22:30:57.114Z,94.70
2018-01-16T22:33:25.500Z,94.80
2018-01-16T22:35:53.657Z,94.80
2018-01-16T22:38:21.818Z,94.80
2018-01-16T22:40:50.935Z,94.60
2018-01-16T22:43:19.096Z,94.50
2018-01-16T22:45:47.300Z,94.90
2018-01-16T22:48:16.270Z,94.90
2018-01-16T22:50:44.555Z,94.90
2018-01-16T22:53:12.705Z,95.20
2018-01-16T22:55:40.857Z,95.20
2018-01-16T22:58:09.050Z,95.50
2018-01-16T23:00:37.250Z,95.40
2018-01-16T23:03:05.431Z,95.30
2018-01-16T23:05:33.577Z,96.00
2018-01-16T23:08:01.726Z,95.00
2018-01-16T23:10:29.941Z,94.70
2018-01-16T23:12:58.126Z,93.60
2018-01-16T23:15:26.276Z,94.80
2018-01-16T23:17:54.464Z,94.20
2018-01-16T23:20:23.508Z,92.60
2018-01-16T23:22:51.685Z,92.60
2018-01-16T23:25:19.840Z,92.40
2018-01-16T23:27:47.993Z,92.40
2018-01-16T23:30:17.234Z,93.00
2018-01-16T23:32:45.387Z,92.70
2018-01-16T23:35:14.466Z,93.00
2018-01-16T23:37:42.624Z,91.10
2018-01-16T23:40:11.197Z,91.60
2018-01-16T23:42:40.135Z,92.70
2018-01-16T23:45:08.670Z,92.70
2018-01-16T23:47:37.825Z,92.20
2018-01-16T23:50:09.342Z,92.20
2018-01-16T23:52:37.513Z,91.80
2018-01-16T23:55:06.708Z,91.30
2018-01-16T23:57:34.958Z,91.60
